sensor_id;sensor_type;location;lat;lon;timestamp;P1;durP1;ratioP1;P2;durP2;ratioP2
37231;SDS011;23125;48.156;15.954;2023-12-20T00:01:09;11.27;;;3.67;;
37231;SDS011;23125;48.156;15.954;2023-12-20T00:03:35;10.93;;;4.00;;
37231;SDS011;23125;48.156;15.954;2023-12-20T00:06:01;9.13;;;3.20;;
37231;SDS011;23125;48.156;15.954;2023-12-20T00:08:27;10.75;;;2.90;;
37231;SDS011;23125;48.156;15.954;2023-12-20T00:10:53;12.00;;;3.60;;
37231;SDS011;23125;48.156;15.954;2023-12-20T00:13:19;9.82;;;3.78;;
37231;SDS011;23125;48.156;15.954;2023-12-20T00:15:45;12.93;;;4.35;;
37231;SDS011;23125;48.156;15.954;2023-12-20T00:18:11;12.68;;;3.55;;
37231;SDS011;23125;48.156;15.954;2023-12-20T00:20:37;15.70;;;5.93;;
37231;SDS011;23125;48.156;15.954;2023-12-20T00:23:02;16.45;;;5.70;;
37231;SDS011;23125;48.156;15.954;2023-12-20T00:25:28;14.75;;;5.03;;
37231;SDS011;23125;48.156;15.954;2023-12-20T00:27:54;16.05;;;5.03;;
37231;SDS011;23125;48.156;15.954;2023-12-20T00:30:20;8.75;;;3.78;;
37231;SDS011;23125;48.156;15.954;2023-12-20T00:32:46;8.80;;;2.88;;
37231;SDS011;23125;48.156;15.954;2023-12-20T00:35:13;7.53;;;2.60;;
37231;SDS011;23125;48.156;15.954;2023-12-20T00:37:39;4.88;;;2.25;;
37231;SDS011;23125;48.156;15.954;2023-12-20T00:40:05;5.07;;;2.05;;
37231;SDS011;23125;48.156;15.954;2023-12-20T00:42:31;2.97;;;1.10;;
37231;SDS011;23125;48.156;15.954;2023-12-20T00:44:58;1.95;;;0.80;;
37231;SDS011;23125;48.156;15.954;2023-12-20T00:47:25;2.25;;;1.13;;
37231;SDS011;23125;48.156;15.954;2023-12-20T00:49:51;3.65;;;1.25;;
37231;SDS011;23125;48.156;15.954;2023-12-20T00:52:17;3.17;;;1.23;;
37231;SDS011;23125;48.156;15.954;2023-12-20T00:54:44;2.47;;;1.00;;
37231;SDS011;23125;48.156;15.954;2023-12-20T00:57:10;3.10;;;1.05;;
37231;SDS011;23125;48.156;15.954;2023-12-20T00:59:36;2.20;;;0.68;;
37231;SDS011;23125;48.156;15.954;2023-12-20T01:02:02;2.20;;;0.90;;
37231;SDS011;23125;48.156;15.954;2023-12-20T01:04:28;1.00;;;0.70;;
37231;SDS011;23125;48.156;15.954;2023-12-20T01:06:54;2.58;;;0.70;;
37231;SDS011;23125;48.156;15.954;2023-12-20T01:09:19;1.20;;;0.65;;
37231;SDS011;23125;48.156;15.954;2023-12-20T01:11:48;1.27;;;0.75;;
37231;SDS011;23125;48.156;15.954;2023-12-20T01:14:15;1.42;;;0.70;;
37231;SDS011;23125;48.156;15.954;2023-12-20T01:16:40;1.35;;;0.75;;
37231;SDS011;23125;48.156;15.954;2023-12-20T01:19:06;1.60;;;0.65;;
37231;SDS011;23125;48.156;15.954;2023-12-20T01:21:32;2.50;;;0.80;;
37231;SDS011;23125;48.156;15.954;2023-12-20T01:23:58;1.52;;;0.65;;
37231;SDS011;23125;48.156;15.954;2023-12-20T01:26:24;0.60;;;0.50;;
37231;SDS011;23125;48.156;15.954;2023-12-20T01:28:49;2.15;;;0.70;;
37231;SDS011;23125;48.156;15.954;2023-12-20T01:31:15;1.65;;;0.77;;
37231;SDS011;23125;48.156;15.954;2023-12-20T01:33:41;2.50;;;0.95;;
37231;SDS011;23125;48.156;15.954;2023-12-20T01:36:07;1.42;;;0.68;;
37231;SDS011;23125;48.156;15.954;2023-12-20T01:38:33;1.50;;;0.80;;
37231;SDS011;23125;48.156;15.954;2023-12-20T01:40:59;2.22;;;0.90;;
37231;SDS011;23125;48.156;15.954;2023-12-20T01:43:25;3.53;;;0.95;;
37231;SDS011;23125;48.156;15.954;2023-12-20T01:45:51;1.70;;;0.70;;
37231;SDS011;23125;48.156;15.954;2023-12-20T01:48:17;2.90;;;1.10;;
37231;SDS011;23125;48.156;15.954;2023-12-20T01:50:45;2.63;;;1.08;;
37231;SDS011;23125;48.156;15.954;2023-12-20T01:53:11;5.30;;;2.10;;
37231;SDS011;23125;48.156;15.954;2023-12-20T01:55:40;3.47;;;1.75;;
37231;SDS011;23125;48.156;15.954;2023-12-20T01:58:09;3.47;;;2.13;;
37231;SDS011;23125;48.156;15.954;2023-12-20T02:03:02;3.10;;;1.60;;
37231;SDS011;23125;48.156;15.954;2023-12-20T02:05:30;2.72;;;1.50;;
37231;SDS011;23125;48.156;15.954;2023-12-20T02:07:56;2.35;;;1.40;;
37231;SDS011;23125;48.156;15.954;2023-12-20T02:10:23;3.38;;;1.48;;
37231;SDS011;23125;48.156;15.954;2023-12-20T02:12:49;1.50;;;0.90;;
37231;SDS011;23125;48.156;15.954;2023-12-20T02:15:15;2.90;;;1.42;;
37231;SDS011;23125;48.156;15.954;2023-12-20T02:17:41;3.10;;;1.42;;
37231;SDS011;23125;48.156;15.954;2023-12-20T02:20:08;2.88;;;1.85;;
37231;SDS011;23125;48.156;15.954;2023-12-20T02:22:34;2.55;;;1.45;;
37231;SDS011;23125;48.156;15.954;2023-12-20T02:25:00;3.97;;;2.00;;
37231;SDS011;23125;48.156;15.954;2023-12-20T02:27:26;3.45;;;1.60;;
37231;SDS011;23125;48.156;15.954;2023-12-20T02:29:54;3.92;;;1.30;;
37231;SDS011;23125;48.156;15.954;2023-12-20T02:32:20;2.17;;;1.10;;
37231;SDS011;23125;48.156;15.954;2023-12-20T02:34:47;2.35;;;1.38;;
37231;SDS011;23125;48.156;15.954;2023-12-20T02:37:13;1.63;;;1.10;;
37231;SDS011;23125;48.156;15.954;2023-12-20T02:39:39;2.28;;;1.00;;
37231;SDS011;23125;48.156;15.954;2023-12-20T02:42:05;2.30;;;1.30;;
37231;SDS011;23125;48.156;15.954;2023-12-20T02:44:31;3.45;;;1.35;;
37231;SDS011;23125;48.156;15.954;2023-12-20T02:46:57;3.00;;;1.80;;
37231;SDS011;23125;48.156;15.954;2023-12-20T02:49:23;2.75;;;1.40;;
37231;SDS011;23125;48.156;15.954;2023-12-20T02:51:49;4.70;;;1.50;;
37231;SDS011;23125;48.156;15.954;2023-12-20T02:54:15;3.83;;;1.55;;
37231;SDS011;23125;48.156;15.954;2023-12-20T02:56:41;3.60;;;1.75;;
37231;SDS011;23125;48.156;15.954;2023-12-20T02:59:07;5.07;;;2.03;;
37231;SDS011;23125;48.156;15.954;2023-12-20T03:01:34;5.50;;;2.80;;
37231;SDS011;23125;48.156;15.954;2023-12-20T03:04:01;5.70;;;2.30;;
37231;SDS011;23125;48.156;15.954;2023-12-20T03:06:27;5.57;;;2.70;;
37231;SDS011;23125;48.156;15.954;2023-12-20T03:08:52;3.78;;;2.30;;
37231;SDS011;23125;48.156;15.954;2023-12-20T03:11:18;4.55;;;1.80;;
37231;SDS011;23125;48.156;15.954;2023-12-20T03:13:44;3.03;;;1.35;;
37231;SDS011;23125;48.156;15.954;2023-12-20T03:16:10;1.95;;;1.40;;
37231;SDS011;23125;48.156;15.954;2023-12-20T03:18:37;2.58;;;1.30;;
37231;SDS011;23125;48.156;15.954;2023-12-20T03:21:04;2.15;;;1.55;;
37231;SDS011;23125;48.156;15.954;2023-12-20T03:23:30;2.05;;;1.30;;
37231;SDS011;23125;48.156;15.954;2023-12-20T03:25:58;2.55;;;1.45;;
37231;SDS011;23125;48.156;15.954;2023-12-20T03:28:27;3.22;;;1.55;;
37231;SDS011;23125;48.156;15.954;2023-12-20T03:30:53;4.25;;;1.83;;
37231;SDS011;23125;48.156;15.954;2023-12-20T03:33:19;3.45;;;1.83;;
37231;SDS011;23125;48.156;15.954;2023-12-20T03:35:45;3.33;;;2.00;;
37231;SDS011;23125;48.156;15.954;2023-12-20T03:38:11;3.67;;;1.77;;
37231;SDS011;23125;48.156;15.954;2023-12-20T03:40:37;4.20;;;2.08;;
37231;SDS011;23125;48.156;15.954;2023-12-20T03:43:03;5.68;;;2.20;;
37231;SDS011;23125;48.156;15.954;2023-12-20T03:45:29;5.72;;;2.20;;
37231;SDS011;23125;48.156;15.954;2023-12-20T03:47:55;3.22;;;2.13;;
37231;SDS011;23125;48.156;15.954;2023-12-20T03:50:22;4.60;;;2.30;;
37231;SDS011;23125;48.156;15.954;2023-12-20T03:52:48;4.25;;;2.53;;
37231;SDS011;23125;48.156;15.954;2023-12-20T03:55:14;5.68;;;2.78;;
37231;SDS011;23125;48.156;15.954;2023-12-20T03:57:40;7.63;;;4.18;;
37231;SDS011;23125;48.156;15.954;2023-12-20T04:00:07;7.22;;;3.53;;
37231;SDS011;23125;48.156;15.954;2023-12-20T04:02:39;7.35;;;3.55;;
37231;SDS011;23125;48.156;15.954;2023-12-20T04:05:07;4.55;;;2.90;;
37231;SDS011;23125;48.156;15.954;2023-12-20T04:07:34;6.72;;;3.90;;
37231;SDS011;23125;48.156;15.954;2023-12-20T04:10:01;6.00;;;4.15;;
37231;SDS011;23125;48.156;15.954;2023-12-20T04:12:29;7.10;;;4.45;;
37231;SDS011;23125;48.156;15.954;2023-12-20T04:14:56;8.35;;;4.97;;
37231;SDS011;23125;48.156;15.954;2023-12-20T04:17:22;5.55;;;3.70;;
37231;SDS011;23125;48.156;15.954;2023-12-20T04:19:48;5.43;;;2.70;;
37231;SDS011;23125;48.156;15.954;2023-12-20T04:22:15;4.35;;;2.85;;
37231;SDS011;23125;48.156;15.954;2023-12-20T04:24:42;14.93;;;8.93;;
37231;SDS011;23125;48.156;15.954;2023-12-20T04:27:08;4.03;;;2.95;;
37231;SDS011;23125;48.156;15.954;2023-12-20T04:29:34;5.18;;;3.10;;
37231;SDS011;23125;48.156;15.954;2023-12-20T04:32:00;6.15;;;4.78;;
37231;SDS011;23125;48.156;15.954;2023-12-20T04:34:26;7.85;;;4.65;;
37231;SDS011;23125;48.156;15.954;2023-12-20T04:36:52;4.72;;;2.40;;
37231;SDS011;23125;48.156;15.954;2023-12-20T04:39:18;5.15;;;3.25;;
37231;SDS011;23125;48.156;15.954;2023-12-20T04:41:44;7.40;;;4.50;;
37231;SDS011;23125;48.156;15.954;2023-12-20T04:44:10;6.95;;;4.55;;
37231;SDS011;23125;48.156;15.954;2023-12-20T04:46:36;15.73;;;6.93;;
37231;SDS011;23125;48.156;15.954;2023-12-20T04:49:02;24.23;;;10.27;;
37231;SDS011;23125;48.156;15.954;2023-12-20T04:51:27;12.73;;;7.05;;
37231;SDS011;23125;48.156;15.954;2023-12-20T04:53:53;10.05;;;5.68;;
37231;SDS011;23125;48.156;15.954;2023-12-20T04:56:19;6.63;;;4.13;;
37231;SDS011;23125;48.156;15.954;2023-12-20T04:58:45;5.43;;;3.33;;
37231;SDS011;23125;48.156;15.954;2023-12-20T05:01:11;6.97;;;3.40;;
37231;SDS011;23125;48.156;15.954;2023-12-20T05:03:38;5.47;;;3.55;;
37231;SDS011;23125;48.156;15.954;2023-12-20T05:06:04;6.55;;;3.85;;
37231;SDS011;23125;48.156;15.954;2023-12-20T05:08:30;5.75;;;3.58;;
37231;SDS011;23125;48.156;15.954;2023-12-20T05:10:55;7.30;;;3.55;;
37231;SDS011;23125;48.156;15.954;2023-12-20T05:13:21;6.07;;;3.40;;
37231;SDS011;23125;48.156;15.954;2023-12-20T05:15:47;5.93;;;3.22;;
37231;SDS011;23125;48.156;15.954;2023-12-20T05:18:13;7.75;;;3.80;;
37231;SDS011;23125;48.156;15.954;2023-12-20T05:20:39;9.30;;;4.82;;
37231;SDS011;23125;48.156;15.954;2023-12-20T05:23:06;7.30;;;3.42;;
37231;SDS011;23125;48.156;15.954;2023-12-20T05:25:31;7.20;;;4.22;;
37231;SDS011;23125;48.156;15.954;2023-12-20T05:27:57;7.60;;;3.35;;
37231;SDS011;23125;48.156;15.954;2023-12-20T05:30:23;6.72;;;3.60;;
37231;SDS011;23125;48.156;15.954;2023-12-20T05:32:49;14.15;;;5.85;;
37231;SDS011;23125;48.156;15.954;2023-12-20T05:35:16;8.05;;;4.32;;
37231;SDS011;23125;48.156;15.954;2023-12-20T05:37:42;6.22;;;3.80;;
37231;SDS011;23125;48.156;15.954;2023-12-20T05:40:08;5.28;;;3.10;;
37231;SDS011;23125;48.156;15.954;2023-12-20T05:42:36;6.28;;;2.78;;
37231;SDS011;23125;48.156;15.954;2023-12-20T05:45:03;5.10;;;2.88;;
37231;SDS011;23125;48.156;15.954;2023-12-20T05:47:31;4.85;;;2.92;;
37231;SDS011;23125;48.156;15.954;2023-12-20T05:49:56;4.85;;;3.40;;
37231;SDS011;23125;48.156;15.954;2023-12-20T05:52:22;5.22;;;2.80;;
37231;SDS011;23125;48.156;15.954;2023-12-20T05:54:48;5.35;;;3.03;;
37231;SDS011;23125;48.156;15.954;2023-12-20T05:57:14;6.18;;;3.22;;
37231;SDS011;23125;48.156;15.954;2023-12-20T05:59:40;3.92;;;2.42;;
37231;SDS011;23125;48.156;15.954;2023-12-20T06:02:06;5.03;;;2.90;;
37231;SDS011;23125;48.156;15.954;2023-12-20T06:04:32;4.63;;;2.33;;
37231;SDS011;23125;48.156;15.954;2023-12-20T06:06:58;3.97;;;2.05;;
37231;SDS011;23125;48.156;15.954;2023-12-20T06:09:25;3.38;;;2.22;;
37231;SDS011;23125;48.156;15.954;2023-12-20T06:11:52;3.50;;;2.05;;
37231;SDS011;23125;48.156;15.954;2023-12-20T06:14:18;5.15;;;2.58;;
37231;SDS011;23125;48.156;15.954;2023-12-20T06:16:45;6.75;;;2.83;;
37231;SDS011;23125;48.156;15.954;2023-12-20T06:19:11;3.30;;;2.15;;
37231;SDS011;23125;48.156;15.954;2023-12-20T06:21:37;4.78;;;2.10;;
37231;SDS011;23125;48.156;15.954;2023-12-20T06:24:03;3.55;;;2.40;;
37231;SDS011;23125;48.156;15.954;2023-12-20T06:26:29;4.07;;;2.45;;
37231;SDS011;23125;48.156;15.954;2023-12-20T06:28:55;6.15;;;2.47;;
37231;SDS011;23125;48.156;15.954;2023-12-20T06:31:21;4.85;;;2.75;;
37231;SDS011;23125;48.156;15.954;2023-12-20T06:33:47;4.03;;;2.72;;
37231;SDS011;23125;48.156;15.954;2023-12-20T06:36:22;5.55;;;3.00;;
37231;SDS011;23125;48.156;15.954;2023-12-20T06:38:50;4.80;;;2.80;;
37231;SDS011;23125;48.156;15.954;2023-12-20T06:41:16;3.90;;;2.83;;
37231;SDS011;23125;48.156;15.954;2023-12-20T06:43:42;7.43;;;2.78;;
37231;SDS011;23125;48.156;15.954;2023-12-20T06:46:08;4.72;;;3.03;;
37231;SDS011;23125;48.156;15.954;2023-12-20T06:48:34;4.13;;;2.45;;
37231;SDS011;23125;48.156;15.954;2023-12-20T06:51:00;5.97;;;2.90;;
37231;SDS011;23125;48.156;15.954;2023-12-20T06:53:27;7.25;;;4.00;;
37231;SDS011;23125;48.156;15.954;2023-12-20T06:55:53;5.85;;;3.17;;
37231;SDS011;23125;48.156;15.954;2023-12-20T06:58:21;15.73;;;5.65;;
37231;SDS011;23125;48.156;15.954;2023-12-20T07:00:48;3.85;;;2.30;;
37231;SDS011;23125;48.156;15.954;2023-12-20T07:03:14;4.75;;;2.72;;
37231;SDS011;23125;48.156;15.954;2023-12-20T07:05:40;4.38;;;2.65;;
37231;SDS011;23125;48.156;15.954;2023-12-20T07:08:06;6.70;;;2.60;;
37231;SDS011;23125;48.156;15.954;2023-12-20T07:10:32;3.53;;;2.38;;
37231;SDS011;23125;48.156;15.954;2023-12-20T07:12:58;4.38;;;2.40;;
37231;SDS011;23125;48.156;15.954;2023-12-20T07:15:24;4.68;;;2.97;;
37231;SDS011;23125;48.156;15.954;2023-12-20T07:17:50;4.43;;;2.15;;
37231;SDS011;23125;48.156;15.954;2023-12-20T07:20:16;4.40;;;2.47;;
37231;SDS011;23125;48.156;15.954;2023-12-20T07:22:42;4.63;;;2.42;;
37231;SDS011;23125;48.156;15.954;2023-12-20T07:25:08;6.43;;;2.78;;
37231;SDS011;23125;48.156;15.954;2023-12-20T07:27:34;1.90;;;1.38;;
37231;SDS011;23125;48.156;15.954;2023-12-20T07:30:00;5.25;;;2.30;;
37231;SDS011;23125;48.156;15.954;2023-12-20T07:32:26;4.28;;;2.42;;
37231;SDS011;23125;48.156;15.954;2023-12-20T07:34:52;3.22;;;1.67;;
37231;SDS011;23125;48.156;15.954;2023-12-20T07:37:19;4.63;;;2.30;;
37231;SDS011;23125;48.156;15.954;2023-12-20T07:39:46;7.90;;;3.03;;
37231;SDS011;23125;48.156;15.954;2023-12-20T07:42:11;5.47;;;3.03;;
37231;SDS011;23125;48.156;15.954;2023-12-20T07:44:37;4.93;;;2.35;;
37231;SDS011;23125;48.156;15.954;2023-12-20T07:47:03;3.38;;;2.05;;
37231;SDS011;23125;48.156;15.954;2023-12-20T07:49:31;6.63;;;2.25;;
37231;SDS011;23125;48.156;15.954;2023-12-20T07:51:57;8.55;;;3.67;;
37231;SDS011;23125;48.156;15.954;2023-12-20T07:54:23;3.53;;;1.83;;
37231;SDS011;23125;48.156;15.954;2023-12-20T07:56:49;5.43;;;2.63;;
37231;SDS011;23125;48.156;15.954;2023-12-20T07:59:14;2.88;;;1.83;;
37231;SDS011;23125;48.156;15.954;2023-12-20T08:01:40;2.90;;;1.88;;
37231;SDS011;23125;48.156;15.954;2023-12-20T08:04:07;3.15;;;1.80;;
37231;SDS011;23125;48.156;15.954;2023-12-20T08:06:33;3.40;;;2.05;;
37231;SDS011;23125;48.156;15.954;2023-12-20T08:08:59;2.45;;;1.70;;
37231;SDS011;23125;48.156;15.954;2023-12-20T08:11:25;4.85;;;2.20;;
37231;SDS011;23125;48.156;15.954;2023-12-20T08:13:51;3.05;;;1.83;;
37231;SDS011;23125;48.156;15.954;2023-12-20T08:16:17;3.42;;;1.90;;
37231;SDS011;23125;48.156;15.954;2023-12-20T08:18:43;4.57;;;2.50;;
37231;SDS011;23125;48.156;15.954;2023-12-20T08:21:09;4.47;;;1.98;;
37231;SDS011;23125;48.156;15.954;2023-12-20T08:23:36;2.85;;;2.03;;
37231;SDS011;23125;48.156;15.954;2023-12-20T08:26:05;3.72;;;2.40;;
37231;SDS011;23125;48.156;15.954;2023-12-20T08:28:32;4.07;;;2.42;;
37231;SDS011;23125;48.156;15.954;2023-12-20T08:30:59;4.50;;;1.95;;
37231;SDS011;23125;48.156;15.954;2023-12-20T08:33:25;3.47;;;2.08;;
37231;SDS011;23125;48.156;15.954;2023-12-20T08:35:51;5.00;;;2.13;;
37231;SDS011;23125;48.156;15.954;2023-12-20T08:38:17;4.63;;;2.35;;
37231;SDS011;23125;48.156;15.954;2023-12-20T08:40:43;3.03;;;2.25;;
37231;SDS011;23125;48.156;15.954;2023-12-20T08:43:09;5.13;;;1.98;;
37231;SDS011;23125;48.156;15.954;2023-12-20T08:45:35;3.67;;;2.08;;
37231;SDS011;23125;48.156;15.954;2023-12-20T08:48:04;5.28;;;2.22;;
37231;SDS011;23125;48.156;15.954;2023-12-20T08:50:30;4.55;;;2.40;;
37231;SDS011;23125;48.156;15.954;2023-12-20T08:52:56;5.20;;;2.67;;
37231;SDS011;23125;48.156;15.954;2023-12-20T08:55:22;3.00;;;1.70;;
37231;SDS011;23125;48.156;15.954;2023-12-20T08:57:48;4.47;;;1.67;;
37231;SDS011;23125;48.156;15.954;2023-12-20T09:00:15;4.25;;;1.73;;
37231;SDS011;23125;48.156;15.954;2023-12-20T09:02:41;3.92;;;2.50;;
37231;SDS011;23125;48.156;15.954;2023-12-20T09:05:07;2.58;;;1.73;;
37231;SDS011;23125;48.156;15.954;2023-12-20T09:07:33;3.70;;;2.22;;
37231;SDS011;23125;48.156;15.954;2023-12-20T09:10:00;5.97;;;2.08;;
37231;SDS011;23125;48.156;15.954;2023-12-20T09:12:26;2.42;;;1.23;;
37231;SDS011;23125;48.156;15.954;2023-12-20T09:14:52;2.05;;;1.50;;
37231;SDS011;23125;48.156;15.954;2023-12-20T09:17:19;2.35;;;1.30;;
37231;SDS011;23125;48.156;15.954;2023-12-20T09:19:47;2.22;;;1.60;;
37231;SDS011;23125;48.156;15.954;2023-12-20T09:22:13;2.10;;;1.52;;
37231;SDS011;23125;48.156;15.954;2023-12-20T09:24:39;2.58;;;1.70;;
37231;SDS011;23125;48.156;15.954;2023-12-20T09:27:05;2.90;;;1.63;;
37231;SDS011;23125;48.156;15.954;2023-12-20T09:29:31;2.55;;;1.42;;
37231;SDS011;23125;48.156;15.954;2023-12-20T09:31:57;3.30;;;1.70;;
37231;SDS011;23125;48.156;15.954;2023-12-20T09:34:23;3.78;;;1.98;;
37231;SDS011;23125;48.156;15.954;2023-12-20T09:36:51;1.70;;;1.30;;
37231;SDS011;23125;48.156;15.954;2023-12-20T09:39:17;2.63;;;1.95;;
37231;SDS011;23125;48.156;15.954;2023-12-20T09:41:45;3.28;;;1.58;;
37231;SDS011;23125;48.156;15.954;2023-12-20T09:44:18;2.67;;;1.80;;
37231;SDS011;23125;48.156;15.954;2023-12-20T09:46:45;4.68;;;2.60;;
37231;SDS011;23125;48.156;15.954;2023-12-20T09:49:14;4.25;;;2.53;;
37231;SDS011;23125;48.156;15.954;2023-12-20T09:51:44;4.28;;;2.33;;
37231;SDS011;23125;48.156;15.954;2023-12-20T09:54:12;3.65;;;1.88;;
37231;SDS011;23125;48.156;15.954;2023-12-20T09:56:42;4.43;;;2.55;;
37231;SDS011;23125;48.156;15.954;2023-12-20T09:59:08;5.97;;;3.20;;
37231;SDS011;23125;48.156;15.954;2023-12-20T10:01:34;11.38;;;4.78;;
37231;SDS011;23125;48.156;15.954;2023-12-20T10:04:03;15.00;;;6.47;;
37231;SDS011;23125;48.156;15.954;2023-12-20T10:06:37;10.32;;;5.07;;
37231;SDS011;23125;48.156;15.954;2023-12-20T10:09:11;14.40;;;5.82;;
37231;SDS011;23125;48.156;15.954;2023-12-20T10:11:38;8.27;;;3.13;;
37231;SDS011;23125;48.156;15.954;2023-12-20T10:14:04;8.68;;;3.97;;
37231;SDS011;23125;48.156;15.954;2023-12-20T10:16:31;8.18;;;2.90;;
37231;SDS011;23125;48.156;15.954;2023-12-20T10:18:58;2.83;;;1.45;;
37231;SDS011;23125;48.156;15.954;2023-12-20T10:21:26;2.50;;;1.70;;
37231;SDS011;23125;48.156;15.954;2023-12-20T10:23:56;2.78;;;1.48;;
37231;SDS011;23125;48.156;15.954;2023-12-20T10:26:26;1.67;;;1.00;;
37231;SDS011;23125;48.156;15.954;2023-12-20T10:28:55;1.48;;;0.98;;
37231;SDS011;23125;48.156;15.954;2023-12-20T10:31:28;1.10;;;0.77;;
37231;SDS011;23125;48.156;15.954;2023-12-20T10:33:59;1.65;;;1.15;;
37231;SDS011;23125;48.156;15.954;2023-12-20T10:36:26;2.40;;;1.00;;
37231;SDS011;23125;48.156;15.954;2023-12-20T10:38:53;1.10;;;0.80;;
37231;SDS011;23125;48.156;15.954;2023-12-20T10:41:24;2.42;;;0.82;;
37231;SDS011;23125;48.156;15.954;2023-12-20T10:43:58;1.58;;;0.85;;
37231;SDS011;23125;48.156;15.954;2023-12-20T10:46:26;1.80;;;0.80;;
37231;SDS011;23125;48.156;15.954;2023-12-20T10:48:54;0.60;;;0.40;;
37231;SDS011;23125;48.156;15.954;2023-12-20T10:51:20;1.35;;;0.85;;
37231;SDS011;23125;48.156;15.954;2023-12-20T10:53:48;2.03;;;1.00;;
37231;SDS011;23125;48.156;15.954;2023-12-20T10:56:18;2.50;;;0.95;;
37231;SDS011;23125;48.156;15.954;2023-12-20T10:58:46;3.13;;;0.80;;
37231;SDS011;23125;48.156;15.954;2023-12-20T11:01:15;1.23;;;0.50;;
37231;SDS011;23125;48.156;15.954;2023-12-20T11:03:48;1.20;;;0.80;;
37231;SDS011;23125;48.156;15.954;2023-12-20T11:11:46;2.13;;;1.60;;
37231;SDS011;23125;48.156;15.954;2023-12-20T11:14:31;3.13;;;1.67;;
37231;SDS011;23125;48.156;15.954;2023-12-20T11:17:11;1.85;;;1.20;;
37231;SDS011;23125;48.156;15.954;2023-12-20T11:22:27;1.10;;;0.70;;
37231;SDS011;23125;48.156;15.954;2023-12-20T11:24:58;1.80;;;1.05;;
37231;SDS011;23125;48.156;15.954;2023-12-20T11:27:33;1.30;;;0.65;;
37231;SDS011;23125;48.156;15.954;2023-12-20T11:30:00;1.60;;;0.63;;
37231;SDS011;23125;48.156;15.954;2023-12-20T11:32:36;1.70;;;1.00;;
37231;SDS011;23125;48.156;15.954;2023-12-20T11:37:36;2.78;;;1.23;;
37231;SDS011;23125;48.156;15.954;2023-12-20T11:40:06;3.25;;;1.58;;
37231;SDS011;23125;48.156;15.954;2023-12-20T11:42:39;6.55;;;2.42;;
37231;SDS011;23125;48.156;15.954;2023-12-20T11:45:15;1.88;;;1.30;;
37231;SDS011;23125;48.156;15.954;2023-12-20T11:50:18;1.33;;;0.70;;
37231;SDS011;23125;48.156;15.954;2023-12-20T11:52:45;1.60;;;0.98;;
37231;SDS011;23125;48.156;15.954;2023-12-20T11:55:12;2.10;;;0.90;;
37231;SDS011;23125;48.156;15.954;2023-12-20T11:57:38;1.50;;;0.90;;
37231;SDS011;23125;48.156;15.954;2023-12-20T12:00:04;1.05;;;0.60;;
37231;SDS011;23125;48.156;15.954;2023-12-20T12:02:31;1.08;;;0.57;;
37231;SDS011;23125;48.156;15.954;2023-12-20T12:04:59;1.48;;;0.77;;
37231;SDS011;23125;48.156;15.954;2023-12-20T12:07:25;1.25;;;0.70;;
37231;SDS011;23125;48.156;15.954;2023-12-20T12:09:51;0.85;;;0.65;;
37231;SDS011;23125;48.156;15.954;2023-12-20T12:12:18;2.35;;;0.63;;
37231;SDS011;23125;48.156;15.954;2023-12-20T12:14:45;9.18;;;2.33;;
37231;SDS011;23125;48.156;15.954;2023-12-20T12:17:14;1.70;;;1.15;;
37231;SDS011;23125;48.156;15.954;2023-12-20T12:19:41;2.80;;;1.17;;
37231;SDS011;23125;48.156;15.954;2023-12-20T12:22:11;3.92;;;1.83;;
37231;SDS011;23125;48.156;15.954;2023-12-20T12:27:08;2.70;;;1.27;;
37231;SDS011;23125;48.156;15.954;2023-12-20T12:29:36;1.65;;;0.88;;
37231;SDS011;23125;48.156;15.954;2023-12-20T12:32:09;3.13;;;1.00;;
37231;SDS011;23125;48.156;15.954;2023-12-20T12:34:35;2.72;;;1.00;;
37231;SDS011;23125;48.156;15.954;2023-12-20T12:37:02;1.92;;;0.93;;
37231;SDS011;23125;48.156;15.954;2023-12-20T12:39:29;1.92;;;0.70;;
37231;SDS011;23125;48.156;15.954;2023-12-20T12:41:55;2.65;;;1.30;;
37231;SDS011;23125;48.156;15.954;2023-12-20T12:44:24;3.88;;;0.80;;
37231;SDS011;23125;48.156;15.954;2023-12-20T12:46:50;1.50;;;0.80;;
37231;SDS011;23125;48.156;15.954;2023-12-20T12:49:21;1.58;;;0.73;;
37231;SDS011;23125;48.156;15.954;2023-12-20T12:51:47;2.38;;;1.35;;
37231;SDS011;23125;48.156;15.954;2023-12-20T12:54:13;1.25;;;0.70;;
37231;SDS011;23125;48.156;15.954;2023-12-20T12:56:42;1.70;;;0.93;;
37231;SDS011;23125;48.156;15.954;2023-12-20T12:59:10;1.80;;;0.90;;
37231;SDS011;23125;48.156;15.954;2023-12-20T13:01:36;1.40;;;0.68;;
37231;SDS011;23125;48.156;15.954;2023-12-20T13:04:02;1.20;;;0.70;;
37231;SDS011;23125;48.156;15.954;2023-12-20T13:06:31;2.95;;;1.15;;
37231;SDS011;23125;48.156;15.954;2023-12-20T13:08:58;1.10;;;0.60;;
37231;SDS011;23125;48.156;15.954;2023-12-20T13:11:24;1.25;;;0.88;;
37231;SDS011;23125;48.156;15.954;2023-12-20T13:13:50;1.45;;;0.77;;
37231;SDS011;23125;48.156;15.954;2023-12-20T13:16:16;1.60;;;0.65;;
37231;SDS011;23125;48.156;15.954;2023-12-20T13:18:42;1.38;;;0.57;;
37231;SDS011;23125;48.156;15.954;2023-12-20T13:21:08;2.40;;;1.00;;
37231;SDS011;23125;48.156;15.954;2023-12-20T13:23:34;0.98;;;0.75;;
37231;SDS011;23125;48.156;15.954;2023-12-20T13:26:00;1.73;;;0.90;;
37231;SDS011;23125;48.156;15.954;2023-12-20T13:28:28;0.90;;;0.55;;
37231;SDS011;23125;48.156;15.954;2023-12-20T13:30:53;1.67;;;0.65;;
37231;SDS011;23125;48.156;15.954;2023-12-20T13:33:19;1.95;;;1.08;;
37231;SDS011;23125;48.156;15.954;2023-12-20T13:35:45;1.08;;;0.77;;
37231;SDS011;23125;48.156;15.954;2023-12-20T13:38:12;1.85;;;0.70;;
37231;SDS011;23125;48.156;15.954;2023-12-20T13:40:39;1.42;;;0.70;;
37231;SDS011;23125;48.156;15.954;2023-12-20T13:43:05;1.25;;;0.80;;
37231;SDS011;23125;48.156;15.954;2023-12-20T13:45:31;1.55;;;0.47;;
37231;SDS011;23125;48.156;15.954;2023-12-20T13:47:58;1.35;;;0.65;;
37231;SDS011;23125;48.156;15.954;2023-12-20T13:50:24;4.25;;;0.65;;
37231;SDS011;23125;48.156;15.954;2023-12-20T13:52:51;1.92;;;0.75;;
37231;SDS011;23125;48.156;15.954;2023-12-20T13:55:17;2.50;;;1.60;;
37231;SDS011;23125;48.156;15.954;2023-12-20T13:57:46;5.63;;;2.53;;
37231;SDS011;23125;48.156;15.954;2023-12-20T14:00:13;8.00;;;3.67;;
37231;SDS011;23125;48.156;15.954;2023-12-20T14:02:42;14.43;;;5.70;;
37231;SDS011;23125;48.156;15.954;2023-12-20T14:05:09;12.32;;;4.03;;
37231;SDS011;23125;48.156;15.954;2023-12-20T14:07:35;8.65;;;3.35;;
37231;SDS011;23125;48.156;15.954;2023-12-20T14:10:02;18.60;;;6.95;;
37231;SDS011;23125;48.156;15.954;2023-12-20T14:12:28;9.02;;;3.83;;
37231;SDS011;23125;48.156;15.954;2023-12-20T14:14:55;9.82;;;3.13;;
37231;SDS011;23125;48.156;15.954;2023-12-20T14:17:21;10.55;;;4.50;;
37231;SDS011;23125;48.156;15.954;2023-12-20T14:19:48;18.90;;;7.22;;
37231;SDS011;23125;48.156;15.954;2023-12-20T14:22:13;17.52;;;7.43;;
37231;SDS011;23125;48.156;15.954;2023-12-20T14:24:42;7.78;;;4.28;;
37231;SDS011;23125;48.156;15.954;2023-12-20T14:27:08;5.25;;;3.13;;
37231;SDS011;23125;48.156;15.954;2023-12-20T14:29:34;3.25;;;1.92;;
37231;SDS011;23125;48.156;15.954;2023-12-20T14:32:00;3.42;;;1.45;;
37231;SDS011;23125;48.156;15.954;2023-12-20T14:34:28;0.82;;;0.60;;
37231;SDS011;23125;48.156;15.954;2023-12-20T14:36:55;1.20;;;0.82;;
37231;SDS011;23125;48.156;15.954;2023-12-20T14:39:21;3.47;;;2.00;;
37231;SDS011;23125;48.156;15.954;2023-12-20T14:41:48;2.85;;;1.23;;
37231;SDS011;23125;48.156;15.954;2023-12-20T14:44:14;5.97;;;3.08;;
37231;SDS011;23125;48.156;15.954;2023-12-20T14:46:40;2.35;;;1.38;;
37231;SDS011;23125;48.156;15.954;2023-12-20T14:49:05;1.48;;;0.73;;